createdAt,value
2022-08-09T00:00:14.446Z,93.60
2022-08-09T00:02:49.284Z,93.60
2022-08-09T00:06:15.511Z,93.80
2022-08-09T00:08:31.661Z,93.70
2022-08-09T00:11:05.956Z,93.80
2022-08-09T00:13:55.622Z,93.90
2022-08-09T00:16:36.593Z,93.90
2022-08-09T00:19:10.522Z,94.10
2022-08-09T00:21:56.108Z,94.10
2022-08-09T00:24:27.858Z,94.20
2022-08-09T00:26:59.784Z,94.20
2022-08-09T00:29:39.934Z,94.30
2022-08-09T00:32:27.322Z,94.30
2022-08-09T00:34:58.660Z,94.40
2022-08-09T00:37:32.403Z,94.50
2022-08-09T00:40:12.873Z,94.70
2022-08-09T00:44:24.605Z,94.50
2022-08-09T00:45:37.912Z,94.70
2022-08-09T00:48:23.573Z,94.70
2022-08-09T00:50:56.022Z,94.70
2022-08-09T00:53:27.167Z,95.00
2022-08-09T00:56:04.412Z,94.90
2022-08-09T00:58:40.138Z,95.00
2022-08-09T01:01:15.941Z,95.20
2022-08-09T01:03:57.723Z,95.10
2022-08-09T01:06:54.747Z,95.10
2022-08-09T01:09:36.617Z,95.30
2022-08-09T01:12:16.661Z,95.40
2022-08-09T01:14:55.040Z,95.60
2022-08-09T01:17:34.021Z,95.50
2022-08-09T01:20:09.556Z,95.60
2022-08-09T01:23:12.459Z,96.10
2022-08-09T01:26:11.438Z,95.80
2022-08-09T01:28:50.450Z,95.70
2022-08-09T01:32:30.090Z,95.80
2022-08-09T01:34:19.994Z,95.80
2022-08-09T01:36:52.794Z,96.10
2022-08-09T01:39:24.465Z,96.10
2022-08-09T01:42:01.276Z,96.50
2022-08-09T01:44:37.790Z,96.30
2022-08-09T01:47:11.811Z,96.20
2022-08-09T01:49:50.924Z,96.20
2022-08-09T01:52:27.123Z,96.10
2022-08-09T01:55:02.052Z,96.30
2022-08-09T01:57:52.981Z,96.70
2022-08-09T02:00:35.586Z,96.50
2022-08-09T02:03:10.641Z,96.80
2022-08-09T02:05:53.437Z,96.90
2022-08-09T02:08:57.632Z,97.00
2022-08-09T02:11:42.920Z,97.20
2022-08-09T02:14:26.434Z,97.40
2022-08-09T02:17:15.270Z,97.30
2022-08-09T02:19:52.859Z,97.10
2022-08-09T02:22:35.698Z,97.20
2022-08-09T02:25:10.725Z,97.50
2022-08-09T02:28:00.551Z,97.60
2022-08-09T02:30:41.513Z,97.50
2022-08-09T02:33:18.834Z,97.40
2022-08-09T02:36:02.815Z,97.60
2022-08-09T02:38:38.318Z,97.60
2022-08-09T02:41:12.092Z,97.60
2022-08-09T02:43:54.956Z,97.50
2022-08-09T02:46:29.625Z,97.70
2022-08-09T02:49:07.547Z,98.00
2022-08-09T02:51:43.196Z,97.90
2022-08-09T02:54:16.922Z,98.10
2022-08-09T02:56:51.362Z,98.10
2022-08-09T02:59:36.473Z,98.00
2022-08-09T03:02:11.981Z,98.20
2022-08-09T03:04:50.715Z,98.40
2022-08-09T03:07:23.154Z,98.60
2022-08-09T03:09:56.737Z,98.30
2022-08-09T03:12:32.069Z,98.60
2022-08-09T03:15:04.083Z,98.50
2022-08-09T03:17:37.019Z,98.50
2022-08-09T03:20:12.123Z,98.60
2022-08-09T03:22:47.144Z,98.80
2022-08-09T03:25:57.964Z,98.50
2022-08-09T03:28:21.720Z,98.80
2022-08-09T03:30:52.795Z,98.90
2022-08-09T03:33:24.373Z,98.70
2022-08-09T03:36:13.716Z,98.90
2022-08-09T03:38:47.262Z,99.00
2022-08-09T03:41:18.690Z,98.90
2022-08-09T03:44:04.019Z,98.90
2022-08-09T03:46:39.572Z,99.10
2022-08-09T03:49:11.003Z,99.00
2022-08-09T03:51:55.924Z,99.10
2022-08-09T03:54:32.885Z,99.50
2022-08-09T03:57:18.440Z,99.40
2022-08-09T03:59:54.552Z,99.40
2022-08-09T04:02:28.711Z,99.40
2022-08-09T04:05:18.212Z,99.70
2022-08-09T04:07:59.258Z,99.50
2022-08-09T04:10:30.535Z,99.80
2022-08-09T04:13:11.501Z,99.90
2022-08-09T04:16:20.008Z,99.90
2022-08-09T04:18:35.180Z,99.90
2022-08-09T04:21:09.565Z,99.90
2022-08-09T04:23:42.496Z,99.90
2022-08-09T04:26:24.968Z,99.90
2022-08-09T04:29:10.985Z,99.90
2022-08-09T04:31:47.459Z,99.90
2022-08-09T04:34:19.097Z,99.90
2022-08-09T04:37:02.362Z,99.90
2022-08-09T04:39:40.558Z,99.90
2022-08-09T04:42:15.930Z,99.90
2022-08-09T04:44:49.272Z,99.90
2022-08-09T04:47:19.825Z,99.90
2022-08-09T04:49:54.522Z,99.90
2022-08-09T04:52:27.836Z,99.90
2022-08-09T04:55:06.846Z,99.90
2022-08-09T04:57:53.875Z,99.90
2022-08-09T05:00:34.241Z,99.90
2022-08-09T05:03:30.575Z,99.90
2022-08-09T05:06:06.864Z,99.90
2022-08-09T05:08:38.208Z,99.90
2022-08-09T05:11:11.318Z,99.90
2022-08-09T05:13:43.153Z,99.90
2022-08-09T05:16:14.953Z,99.90
2022-08-09T05:18:58.415Z,99.90
2022-08-09T05:21:36.442Z,99.90
2022-08-09T05:24:17.284Z,99.90
2022-08-09T05:26:50.181Z,99.90
2022-08-09T05:29:24.215Z,99.90
2022-08-09T05:32:03.011Z,99.90
2022-08-09T05:34:36.245Z,99.90
2022-08-09T05:37:11.422Z,99.90
2022-08-09T05:39:44.537Z,99.90
2022-08-09T05:42:21.515Z,99.90
2022-08-09T05:44:53.730Z,99.90
2022-08-09T05:47:30.290Z,99.90
2022-08-09T05:50:32.361Z,99.90
2022-08-09T05:52:55.026Z,99.90
2022-08-09T05:55:27.306Z,99.90
2022-08-09T05:58:00.166Z,99.90
2022-08-09T06:00:33.448Z,99.90
2022-08-09T06:03:10.675Z,99.90
2022-08-09T06:05:54.782Z,99.90
2022-08-09T06:08:31.859Z,99.90
2022-08-09T06:11:03.226Z,99.90
2022-08-09T06:13:49.769Z,99.90
2022-08-09T06:16:20.157Z,99.90
2022-08-09T06:18:50.421Z,99.90
2022-08-09T06:21:21.906Z,99.90
2022-08-09T06:23:58.688Z,99.90
2022-08-09T06:26:34.511Z,99.90
2022-08-09T06:29:08.399Z,99.90
2022-08-09T06:32:08.501Z,99.90
2022-08-09T06:34:35.825Z,99.90
2022-08-09T06:37:08.892Z,99.90
2022-08-09T06:39:57.714Z,99.90
2022-08-09T06:42:33.647Z,99.90
2022-08-09T06:46:06.773Z,99.90
2022-08-09T06:48:00.739Z,99.90
2022-08-09T06:50:32.201Z,99.90
2022-08-09T06:53:04.948Z,99.90
2022-08-09T06:55:38.524Z,99.90
2022-08-09T06:58:09.102Z,99.90
2022-08-09T07:01:03.346Z,99.90
2022-08-09T07:03:39.700Z,99.90
2022-08-09T07:06:22.795Z,99.90
2022-08-09T07:08:58.447Z,99.90
2022-08-09T07:11:45.566Z,99.90
2022-08-09T07:14:26.679Z,99.90
2022-08-09T07:17:00.619Z,99.90
2022-08-09T07:19:31.208Z,99.90
2022-08-09T07:22:02.101Z,99.90
2022-08-09T07:24:40.059Z,99.90
2022-08-09T07:27:27.207Z,99.90
2022-08-09T07:30:05.925Z,99.90
2022-08-09T07:32:40.334Z,99.90
2022-08-09T07:35:14.822Z,99.90
2022-08-09T07:37:47.949Z,99.90
2022-08-09T07:40:27.093Z,99.90
2022-08-09T07:43:14.828Z,99.90
2022-08-09T07:45:47.436Z,99.90
2022-08-09T07:48:29.590Z,99.90
2022-08-09T07:51:10.032Z,99.90
2022-08-09T07:54:05.005Z,99.90
2022-08-09T07:56:49.248Z,99.90
2022-08-09T07:59:33.569Z,99.90
2022-08-09T08:02:05.986Z,99.90
2022-08-09T08:04:40.115Z,99.90
2022-08-09T08:07:57.162Z,99.90
2022-08-09T08:10:08.390Z,99.90
2022-08-09T08:12:44.995Z,99.90
2022-08-09T08:15:18.032Z,99.90
2022-08-09T08:17:58.208Z,99.90
2022-08-09T08:20:33.521Z,99.90
2022-08-09T08:23:16.966Z,99.90
2022-08-09T08:25:53.928Z,99.90
2022-08-09T08:28:32.753Z,99.90
2022-08-09T08:31:13.826Z,99.90
2022-08-09T08:33:52.783Z,99.90
2022-08-09T08:36:30.751Z,99.90
2022-08-09T08:39:01.825Z,99.90
2022-08-09T08:41:50.243Z,99.90
2022-08-09T08:44:26.989Z,99.90
2022-08-09T08:47:04.365Z,99.90
2022-08-09T08:49:48.340Z,99.90
2022-08-09T08:55:18.928Z,99.90
2022-08-09T08:57:57.235Z,99.90
2022-08-09T09:00:30.426Z,99.90
2022-08-09T09:03:16.502Z,99.90
2022-08-09T09:06:00.732Z,99.90
2022-08-09T09:08:42.253Z,99.80
2022-08-09T09:11:19.759Z,99.90
2022-08-09T09:13:56.199Z,99.90
2022-08-09T09:16:34.455Z,99.50
2022-08-09T09:19:37.076Z,99.50
2022-08-09T09:22:07.662Z,99.40
2022-08-09T09:24:45.967Z,98.60
2022-08-09T09:27:47.268Z,99.00
2022-08-09T09:30:38.259Z,98.80
2022-08-09T09:33:16.727Z,99.30
2022-08-09T09:36:00.750Z,98.10
2022-08-09T09:38:48.185Z,97.90
2022-08-09T09:41:48.633Z,97.50
2022-08-09T09:44:31.642Z,97.20
2022-08-09T09:47:09.232Z,97.00
2022-08-09T09:50:07.158Z,97.00
2022-08-09T09:52:36.944Z,96.90
2022-08-09T09:55:27.770Z,97.00
2022-08-09T09:58:16.734Z,97.00
2022-08-09T10:00:53.936Z,96.30
2022-08-09T10:03:43.913Z,96.50
2022-08-09T10:06:15.311Z,96.40
2022-08-09T10:08:55.335Z,96.30
2022-08-09T10:11:59.862Z,96.30
2022-08-09T10:14:33.822Z,96.10
2022-08-09T10:17:50.715Z,96.10
2022-08-09T10:20:06.266Z,96.00
2022-08-09T10:22:45.766Z,95.80
2022-08-09T10:25:16.378Z,95.10
2022-08-09T10:27:56.818Z,95.50
2022-08-09T10:34:04.475Z,94.50
2022-08-09T10:36:14.185Z,95.10
2022-08-09T10:38:56.605Z,94.50
2022-08-09T10:41:31.242Z,94.10
2022-08-09T10:44:02.496Z,94.40
2022-08-09T10:46:57.764Z,94.50
2022-08-09T10:49:42.392Z,94.00
2022-08-09T10:52:48.939Z,94.40
2022-08-09T10:55:27.732Z,94.00
2022-08-09T10:58:00.485Z,93.90
2022-08-09T11:02:06.725Z,94.20
2022-08-09T11:04:30.640Z,93.90
2022-08-09T11:07:56.725Z,93.20
2022-08-09T11:11:00.919Z,93.10
2022-08-09T11:13:50.898Z,93.20
2022-08-09T11:16:40.839Z,93.10
2022-08-09T11:19:12.129Z,93.10
2022-08-09T11:22:16.659Z,92.90
2022-08-09T11:25:09.728Z,92.50
2022-08-09T11:28:04.884Z,92.20
2022-08-09T11:30:37.834Z,92.30
2022-08-09T11:33:14.016Z,92.50
2022-08-09T11:35:50.272Z,92.50
2022-08-09T11:38:32.449Z,92.30
2022-08-09T11:41:09.227Z,91.20
2022-08-09T11:43:45.789Z,91.40
2022-08-09T11:46:26.508Z,90.20
2022-08-09T11:49:05.331Z,89.80
2022-08-09T11:53:02.498Z,90.40
2022-08-09T11:55:51.755Z,91.70
2022-08-09T11:58:50.094Z,91.20
2022-08-09T12:02:01.345Z,90.40
2022-08-09T12:04:20.545Z,90.30
2022-08-09T12:06:56.361Z,88.90
2022-08-09T12:09:33.890Z,90.10
2022-08-09T12:12:12.091Z,90.00
2022-08-09T12:15:07.933Z,90.20
2022-08-09T12:17:43.406Z,89.40
2022-08-09T12:20:21.694Z,89.30
2022-08-09T12:22:58.739Z,88.80
2022-08-09T12:25:37.349Z,88.60
2022-08-09T12:29:10.434Z,87.70
2022-08-09T12:31:10.898Z,87.70
2022-08-09T12:33:58.687Z,88.10
2022-08-09T12:36:33.811Z,86.90
2022-08-09T12:39:04.990Z,86.70
2022-08-09T12:41:40.148Z,86.60
2022-08-09T12:44:12.703Z,86.40
2022-08-09T12:46:50.070Z,86.50
2022-08-09T12:49:23.335Z,87.40
2022-08-09T12:52:02.655Z,85.40
2022-08-09T12:56:10.917Z,84.60
2022-08-09T12:57:42.389Z,85.10
2022-08-09T13:00:25.318Z,85.20
2022-08-09T13:03:01.325Z,84.90
2022-08-09T13:05:51.718Z,81.80
2022-08-09T13:08:40.770Z,81.50
2022-08-09T13:11:25.982Z,82.40
2022-08-09T13:14:42.701Z,84.90
2022-08-09T13:16:51.940Z,83.90
2022-08-09T13:20:10.247Z,83.60
2022-08-09T13:22:45.599Z,82.80
2022-08-09T13:25:19.119Z,81.70
2022-08-09T13:27:55.750Z,80.60
2022-08-09T13:31:10.886Z,81.00
2022-08-09T13:33:35.918Z,80.80
2022-08-09T13:36:24.502Z,81.50
2022-08-09T13:41:56.540Z,81.90
2022-08-09T13:42:04.198Z,80.10
2022-08-09T13:44:35.461Z,81.00
2022-08-09T13:47:27.490Z,80.50
2022-08-09T13:50:02.121Z,80.40
2022-08-09T13:52:35.534Z,80.30
2022-08-09T13:55:07.691Z,80.40
2022-08-09T13:57:55.976Z,80.20
2022-08-09T14:00:30.478Z,79.40
2022-08-09T14:03:03.603Z,77.40
2022-08-09T14:05:57.013Z,79.20
2022-08-09T14:08:34.665Z,79.00
2022-08-09T14:11:15.913Z,78.90
2022-08-09T14:14:22.821Z,78.50
2022-08-09T14:16:37.373Z,76.60
2022-08-09T14:19:10.797Z,76.50
2022-08-09T14:21:41.645Z,76.70
2022-08-09T14:24:18.748Z,76.30
2022-08-09T14:27:02.831Z,76.20
2022-08-09T14:30:34.152Z,75.40
2022-08-09T14:32:40.493Z,75.80
2022-08-09T14:35:13.297Z,76.20
2022-08-09T14:38:02.641Z,76.40
2022-08-09T14:40:39.044Z,75.40
2022-08-09T14:43:27.261Z,74.60
2022-08-09T14:46:57.639Z,74.20
2022-08-09T14:49:10.495Z,75.10
2022-08-09T14:51:42.538Z,74.30
2022-08-09T14:54:14.958Z,73.70
2022-08-09T14:56:57.407Z,73.80
2022-08-09T14:59:29.618Z,73.10
2022-08-09T15:02:01.113Z,73.70
2022-08-09T15:04:32.969Z,72.60
2022-08-09T15:07:03.306Z,72.80
2022-08-09T15:10:07.336Z,73.50
2022-08-09T15:12:26.582Z,72.00
2022-08-09T15:14:58.008Z,73.30
2022-08-09T15:17:29.061Z,72.90
2022-08-09T15:20:02.753Z,73.30
2022-08-09T15:22:33.569Z,72.90
2022-08-09T15:25:04.217Z,72.70
2022-08-09T15:27:54.815Z,72.60
2022-08-09T15:31:00.389Z,72.30
2022-08-09T15:33:28.002Z,73.20
2022-08-09T15:36:11.599Z,72.30
2022-08-09T15:38:43.749Z,73.20
2022-08-09T15:41:21.951Z,73.60
2022-08-09T15:43:56.496Z,73.10
2022-08-09T15:46:33.504Z,72.50
2022-08-09T15:49:23.011Z,72.40
2022-08-09T15:52:04.488Z,72.80
2022-08-09T15:54:49.479Z,72.70
2022-08-09T15:57:35.997Z,73.70
2022-08-09T16:00:24.353Z,73.60
2022-08-09T16:02:57.867Z,73.20
2022-08-09T16:05:47.795Z,73.00
2022-08-09T16:08:30.619Z,72.90
2022-08-09T16:11:02.637Z,73.10
2022-08-09T16:14:03.978Z,72.30
2022-08-09T16:16:29.946Z,72.70
2022-08-09T16:19:00.514Z,71.80
2022-08-09T16:21:35.096Z,71.80
2022-08-09T16:24:05.753Z,71.40
2022-08-09T16:26:43.897Z,71.90
2022-08-09T16:29:20.375Z,71.10
2022-08-09T16:32:19.836Z,71.00
2022-08-09T16:34:56.078Z,70.60
2022-08-09T16:37:55.380Z,70.40
2022-08-09T16:40:29.741Z,70.70
2022-08-09T16:43:10.838Z,70.20
2022-08-09T16:45:44.350Z,71.10
2022-08-09T16:48:41.280Z,70.40
2022-08-09T16:51:13.537Z,71.70
2022-08-09T16:54:16.542Z,71.80
2022-08-09T16:56:48.937Z,72.00
2022-08-09T16:59:20.079Z,71.30
2022-08-09T17:01:52.922Z,72.10
2022-08-09T17:04:28.559Z,71.20
2022-08-09T17:08:46.674Z,71.20
2022-08-09T17:09:50.285Z,71.20
2022-08-09T17:12:20.706Z,70.90
2022-08-09T17:14:57.281Z,71.20
2022-08-09T17:17:30.744Z,70.90
2022-08-09T17:20:33.244Z,70.70
2022-08-09T17:23:10.522Z,71.00
2022-08-09T17:25:46.005Z,71.20
2022-08-09T17:28:23.309Z,70.60
2022-08-09T17:30:53.857Z,70.30
2022-08-09T17:33:24.307Z,70.00
2022-08-09T17:35:57.715Z,69.70
2022-08-09T17:38:33.955Z,70.10
2022-08-09T17:41:09.343Z,70.00
2022-08-09T17:43:40.001Z,69.20
2022-08-09T17:46:11.307Z,69.90
2022-08-09T17:48:46.750Z,69.40
2022-08-09T17:51:25.634Z,70.00
2022-08-09T17:54:01.562Z,70.10
2022-08-09T17:56:35.948Z,70.50
2022-08-09T17:59:11.743Z,71.00
2022-08-09T18:02:06.229Z,71.20
2022-08-09T18:04:37.574Z,70.80
2022-08-09T18:07:23.285Z,70.90
2022-08-09T18:10:04.217Z,70.80
2022-08-09T18:12:40.546Z,71.20
2022-08-09T18:15:13.540Z,70.80
2022-08-09T18:18:02.490Z,71.20
2022-08-09T18:20:56.441Z,70.50
2022-08-09T18:24:10.067Z,69.80
2022-08-09T18:26:17.909Z,67.80
2022-08-09T18:30:40.267Z,67.10
2022-08-09T18:31:55.254Z,66.40
2022-08-09T18:34:29.086Z,65.80
2022-08-09T18:36:59.458Z,67.90
2022-08-09T18:39:33.139Z,69.00
2022-08-09T18:42:08.185Z,70.10
2022-08-09T18:44:40.318Z,71.50
2022-08-09T18:47:15.746Z,71.30
2022-08-09T18:49:47.277Z,70.90
2022-08-09T18:52:18.774Z,72.10
2022-08-09T18:54:58.011Z,72.10
2022-08-09T18:57:38.569Z,73.20
2022-08-09T19:00:20.097Z,71.80
2022-08-09T19:02:54.035Z,72.10
2022-08-09T19:05:28.669Z,72.50
2022-08-09T19:08:18.553Z,72.10
2022-08-09T19:10:54.074Z,72.20
2022-08-09T19:13:38.048Z,72.70
2022-08-09T19:16:21.011Z,73.00
2022-08-09T19:18:51.735Z,73.50
2022-08-09T19:21:47.788Z,73.50
2022-08-09T19:24:33.573Z,73.70
2022-08-09T19:27:08.975Z,73.80
2022-08-09T19:30:22.403Z,73.80
2022-08-09T19:32:31.611Z,74.10
2022-08-09T19:35:06.031Z,75.00
2022-08-09T19:37:52.834Z,74.80
2022-08-09T19:40:34.077Z,74.90
2022-08-09T19:43:16.239Z,75.80
2022-08-09T19:45:47.301Z,75.60
2022-08-09T19:48:18.513Z,75.70
2022-08-09T19:51:11.400Z,76.50
2022-08-09T19:53:45.519Z,76.50
2022-08-09T19:56:18.237Z,76.80
2022-08-09T19:59:40.530Z,76.90
2022-08-09T20:02:04.686Z,76.60
2022-08-09T20:04:53.012Z,77.40
2022-08-09T20:07:26.365Z,77.20
2022-08-09T20:10:17.581Z,78.20
2022-08-09T20:12:52.538Z,78.10
2022-08-09T20:16:36.360Z,78.30
2022-08-09T20:18:18.175Z,78.50
2022-08-09T20:20:51.255Z,78.90
2022-08-09T20:23:38.784Z,78.50
2022-08-09T20:26:13.228Z,78.90
2022-08-09T20:28:49.898Z,79.70
2022-08-09T20:31:23.167Z,80.00
2022-08-09T20:33:58.384Z,80.40
2022-08-09T20:36:32.532Z,80.00
2022-08-09T20:39:29.069Z,80.80
2022-08-09T20:41:56.375Z,81.10
2022-08-09T20:44:29.588Z,81.10
2022-08-09T20:47:04.234Z,81.60
2022-08-09T20:49:34.764Z,81.90
2022-08-09T20:52:05.679Z,82.10
2022-08-09T20:54:35.964Z,82.50
2022-08-09T20:57:10.864Z,82.70
2022-08-09T21:00:20.256Z,83.00
2022-08-09T21:02:34.789Z,83.00
2022-08-09T21:05:55.151Z,82.90
2022-08-09T21:08:00.220Z,83.30
2022-08-09T21:10:32.389Z,83.70
2022-08-09T21:13:06.271Z,83.90
2022-08-09T21:15:51.800Z,84.20
2022-08-09T21:18:27.626Z,84.20
2022-08-09T21:20:58.357Z,84.40
2022-08-09T21:23:47.670Z,84.40
2022-08-09T21:26:19.176Z,84.50
2022-08-09T21:28:51.837Z,84.90
2022-08-09T21:31:48.475Z,84.90
2022-08-09T21:34:29.179Z,85.20
2022-08-09T21:37:00.241Z,85.30
2022-08-09T21:39:42.073Z,85.40
2022-08-09T21:42:13.185Z,85.70
2022-08-09T21:44:44.611Z,85.70
2022-08-09T21:47:18.071Z,85.80
2022-08-09T21:49:51.510Z,86.00
2022-08-09T21:52:24.808Z,86.30
2022-08-09T21:55:04.362Z,86.40
2022-08-09T21:57:38.357Z,86.70
2022-08-09T22:00:32.347Z,86.80
2022-08-09T22:03:05.958Z,86.90
2022-08-09T22:05:42.147Z,86.90
2022-08-09T22:08:15.560Z,87.10
2022-08-09T22:11:00.225Z,87.20
2022-08-09T22:13:37.595Z,87.40
2022-08-09T22:16:09.637Z,87.60
2022-08-09T22:18:52.258Z,87.90
2022-08-09T22:21:45.395Z,88.10
2022-08-09T22:24:21.108Z,88.10
2022-08-09T22:26:55.983Z,88.10
2022-08-09T22:29:46.302Z,88.10
2022-08-09T22:32:29.829Z,88.00
2022-08-09T22:35:06.842Z,88.20
2022-08-09T22:38:07.012Z,88.50
2022-08-09T22:40:38.363Z,88.50
2022-08-09T22:43:16.787Z,88.80
2022-08-09T22:48:14.402Z,88.90
2022-08-09T22:48:50.713Z,89.00
2022-08-09T22:51:24.044Z,89.20
2022-08-09T22:54:02.050Z,89.10
2022-08-09T22:56:34.591Z,89.20
2022-08-09T22:59:06.018Z,89.20
2022-08-09T23:01:55.644Z,89.20
2022-08-09T23:04:26.270Z,89.30
2022-08-09T23:07:16.367Z,89.40
2022-08-09T23:09:49.365Z,89.30
2022-08-09T23:12:19.640Z,89.60
2022-08-09T23:14:54.003Z,89.60
2022-08-09T23:17:24.755Z,89.90
2022-08-09T23:20:07.530Z,89.90
2022-08-09T23:22:39.136Z,90.30
2022-08-09T23:25:15.758Z,90.10
2022-08-09T23:28:00.577Z,90.00
2022-08-09T23:30:36.790Z,90.10
2022-08-09T23:33:07.267Z,90.20
2022-08-09T23:36:05.635Z,90.20
2022-08-09T23:38:28.005Z,90.40
2022-08-09T23:41:00.972Z,90.40
2022-08-09T23:43:31.216Z,90.50
2022-08-09T23:46:01.706Z,90.50
2022-08-09T23:48:32.039Z,90.60
2022-08-09T23:51:02.552Z,90.60
2022-08-09T23:53:37.580Z,90.70
2022-08-09T23:56:11.886Z,90.80
2022-08-09T23:58:42.221Z,90.80
